createdAt,value
2023-12-04T00:00:06.978Z,-3.05
2023-12-04T00:01:06.164Z,-3.03
2023-12-04T00:02:06.104Z,-3.05
2023-12-04T00:03:06.987Z,-3.05
2023-12-04T00:04:07.318Z,-3.06
2023-12-04T00:05:06.060Z,-3.07
2023-12-04T00:06:06.979Z,-3.07
2023-12-04T00:07:06.593Z,-3.06
2023-12-04T00:08:05.990Z,-3.06
2023-12-04T00:09:06.550Z,-3.06
2023-12-04T00:10:05.998Z,-3.05
2023-12-04T00:11:05.973Z,-3.07
2023-12-04T00:12:05.967Z,-3.06
2023-12-04T00:13:06.047Z,-3.06
2023-12-04T00:14:05.955Z,-3.06
2023-12-04T00:15:05.954Z,-3.06
2023-12-04T00:16:06.856Z,-3.05
2023-12-04T00:17:05.917Z,-3.05
2023-12-04T00:18:06.558Z,-3.06
2023-12-04T00:19:05.961Z,-3.03
2023-12-04T00:20:05.870Z,-3.05
2023-12-04T00:21:07.477Z,-3.03
2023-12-04T00:22:07.062Z,-3.03
2023-12-04T00:23:05.866Z,-3.05
2023-12-04T00:24:05.828Z,-3.03
2023-12-04T00:25:06.045Z,-3.03
2023-12-04T00:26:06.496Z,-3.03
2023-12-04T00:27:06.546Z,-3.05
2023-12-04T00:28:05.955Z,-3.05
2023-12-04T00:29:06.982Z,-3.06
2023-12-04T00:30:05.772Z,-3.05
2023-12-04T00:31:05.794Z,-3.05
2023-12-04T00:32:05.754Z,-3.05
2023-12-04T00:33:05.784Z,-3.05
2023-12-04T00:34:06.446Z,-3.05
2023-12-04T00:35:06.346Z,-3.05
2023-12-04T00:36:05.774Z,-3.06
2023-12-04T00:37:05.737Z,-3.06
2023-12-04T00:38:06.533Z,-3.05
2023-12-04T00:39:06.542Z,-3.07
2023-12-04T00:40:07.118Z,-3.07
2023-12-04T00:41:05.650Z,-3.06
2023-12-04T00:42:05.640Z,-3.09
2023-12-04T00:43:05.691Z,-3.09
2023-12-04T00:44:05.634Z,-3.09
2023-12-04T00:45:06.534Z,-3.10
2023-12-04T00:46:07.061Z,-3.10
2023-12-04T00:47:06.316Z,-3.12
2023-12-04T00:48:07.537Z,-3.10
2023-12-04T00:49:05.673Z,-3.12
2023-12-04T00:50:05.576Z,-3.14
2023-12-04T00:51:05.554Z,-3.14
2023-12-04T00:52:05.717Z,-3.12
2023-12-04T00:53:05.542Z,-3.14
2023-12-04T00:54:06.629Z,-3.14
2023-12-04T00:55:05.545Z,-3.15
2023-12-04T00:56:06.046Z,-3.17
2023-12-04T00:57:05.486Z,-3.15
2023-12-04T00:58:05.497Z,-3.14
2023-12-04T00:59:05.456Z,-3.14
2023-12-04T01:00:05.551Z,-3.15
2023-12-04T01:01:05.478Z,-3.15
2023-12-04T01:02:05.467Z,-3.17
2023-12-04T01:03:05.467Z,-3.15
2023-12-04T01:04:05.461Z,-3.15
2023-12-04T01:05:06.407Z,-3.15
2023-12-04T01:06:05.388Z,-3.14
2023-12-04T01:07:05.409Z,-3.15
2023-12-04T01:08:06.989Z,-3.17
2023-12-04T01:09:05.359Z,-3.17
2023-12-04T01:10:05.409Z,-3.17
2023-12-04T01:11:05.342Z,-3.17
2023-12-04T01:12:05.982Z,-3.15
2023-12-04T01:13:05.356Z,-3.17
2023-12-04T01:14:06.070Z,-3.15
2023-12-04T01:15:05.293Z,-3.15
2023-12-04T01:16:05.391Z,-3.17
2023-12-04T01:17:05.269Z,-3.15
2023-12-04T01:18:05.352Z,-3.15
2023-12-04T01:19:05.275Z,-3.14
2023-12-04T01:20:06.086Z,-3.14
2023-12-04T01:21:05.229Z,-3.14
2023-12-04T01:22:05.382Z,-3.14
2023-12-04T01:23:05.986Z,-3.14
2023-12-04T01:24:05.209Z,-3.14
2023-12-04T01:25:06.065Z,-3.15
2023-12-04T01:26:06.035Z,-3.14
2023-12-04T01:27:05.161Z,-3.12
2023-12-04T01:28:05.256Z,-3.12
2023-12-04T01:29:05.168Z,-3.10
2023-12-04T01:30:05.150Z,-3.10
2023-12-04T01:31:05.971Z,-3.10
2023-12-04T01:32:05.117Z,-3.10
2023-12-04T01:33:05.174Z,-3.10
2023-12-04T01:34:05.924Z,-3.09
2023-12-04T01:35:05.083Z,-3.07
2023-12-04T01:36:05.783Z,-3.07
2023-12-04T01:37:05.105Z,-3.05
2023-12-04T01:38:06.989Z,-3.06
2023-12-04T01:39:05.084Z,-3.05
2023-12-04T01:40:05.076Z,-3.05
2023-12-04T01:41:05.019Z,-3.03
2023-12-04T01:42:05.010Z,-3.00
2023-12-04T01:43:05.586Z,-2.99
2023-12-04T01:44:04.985Z,-2.96
2023-12-04T01:45:04.996Z,-2.92
2023-12-04T01:46:05.267Z,-2.91
2023-12-04T01:47:04.951Z,-2.85
2023-12-04T01:48:05.057Z,-2.86
2023-12-04T01:49:05.049Z,-2.84
2023-12-04T01:50:04.971Z,-2.85
2023-12-04T01:51:04.916Z,-2.82
2023-12-04T01:52:04.951Z,-2.84
2023-12-04T01:53:04.890Z,-2.82
2023-12-04T01:54:04.883Z,-2.84
2023-12-04T01:55:06.595Z,-2.82
2023-12-04T01:56:04.897Z,-2.82
2023-12-04T01:57:04.849Z,-2.82
2023-12-04T01:58:04.912Z,-2.82
2023-12-04T01:59:04.838Z,-2.81
2023-12-04T02:00:04.820Z,-2.81
2023-12-04T02:01:04.837Z,-2.84
2023-12-04T02:02:04.816Z,-2.84
2023-12-04T02:03:04.838Z,-2.84
2023-12-04T02:04:04.869Z,-2.89
2023-12-04T02:05:04.799Z,-2.91
2023-12-04T02:06:04.799Z,-2.94
2023-12-04T02:07:04.775Z,-2.94
2023-12-04T02:08:04.742Z,-2.96
2023-12-04T02:09:04.727Z,-2.97
2023-12-04T02:10:06.513Z,-2.99
2023-12-04T02:11:04.705Z,-2.99
2023-12-04T02:12:04.830Z,-2.99
2023-12-04T02:13:04.723Z,-3.02
2023-12-04T02:14:04.681Z,-2.97
2023-12-04T02:15:05.286Z,-2.97
2023-12-04T02:16:06.038Z,-2.97
2023-12-04T02:17:04.808Z,-2.96
2023-12-04T02:18:04.798Z,-2.94
2023-12-04T02:19:04.907Z,-2.92
2023-12-04T02:20:05.500Z,-2.91
2023-12-04T02:21:04.603Z,-2.86
2023-12-04T02:22:04.610Z,-2.85
2023-12-04T02:23:04.577Z,-2.85
2023-12-04T02:24:04.610Z,-2.85
2023-12-04T02:25:04.596Z,-2.84
2023-12-04T02:26:05.413Z,-2.79
2023-12-04T02:27:05.495Z,-2.81
2023-12-04T02:28:04.592Z,-2.79
2023-12-04T02:29:05.499Z,-2.78
2023-12-04T02:30:04.509Z,-2.77
2023-12-04T02:31:04.534Z,-2.77
2023-12-04T02:32:05.418Z,-2.74
2023-12-04T02:33:04.566Z,-2.74
2023-12-04T02:34:04.530Z,-2.74
2023-12-04T02:35:04.480Z,-2.77
2023-12-04T02:36:05.052Z,-2.74
2023-12-04T02:37:04.576Z,-2.74
2023-12-04T02:38:05.421Z,-2.77
2023-12-04T02:39:05.403Z,-2.77
2023-12-04T02:40:04.506Z,-2.77
2023-12-04T02:41:04.390Z,-2.74
2023-12-04T02:42:04.405Z,-2.74
2023-12-04T02:43:04.447Z,-2.73
2023-12-04T02:44:04.358Z,-2.77
2023-12-04T02:45:04.995Z,-2.77
2023-12-04T02:46:05.103Z,-2.73
2023-12-04T02:47:04.328Z,-2.74
2023-12-04T02:48:05.103Z,-2.73
2023-12-04T02:49:04.359Z,-2.73
2023-12-04T02:50:04.313Z,-2.71
2023-12-04T02:51:05.299Z,-2.71
2023-12-04T02:52:04.304Z,-2.71
2023-12-04T02:53:04.273Z,-2.71
2023-12-04T02:54:04.259Z,-2.74
2023-12-04T02:55:04.283Z,-2.74
2023-12-04T02:56:04.245Z,-2.73
2023-12-04T02:57:05.000Z,-2.74
2023-12-04T02:58:04.277Z,-2.73
2023-12-04T02:59:04.789Z,-2.73
2023-12-04T03:00:04.204Z,-2.74
2023-12-04T03:01:04.260Z,-2.73
2023-12-04T03:02:04.242Z,-2.73
2023-12-04T03:03:05.033Z,-2.73
2023-12-04T03:04:04.239Z,-2.73
2023-12-04T03:05:04.165Z,-2.74
2023-12-04T03:06:04.171Z,-2.74
2023-12-04T03:07:04.169Z,-2.74
2023-12-04T03:08:04.116Z,-2.74
2023-12-04T03:09:04.805Z,-2.78
2023-12-04T03:10:04.135Z,-2.78
2023-12-04T03:11:04.080Z,-2.77
2023-12-04T03:12:05.995Z,-2.78
2023-12-04T03:13:04.115Z,-2.78
2023-12-04T03:14:04.081Z,-2.77
2023-12-04T03:15:05.001Z,-2.77
2023-12-04T03:16:04.076Z,-2.77
2023-12-04T03:17:04.017Z,-2.78
2023-12-04T03:18:05.587Z,-2.81
2023-12-04T03:19:04.109Z,-2.84
2023-12-04T03:20:04.920Z,-2.82
2023-12-04T03:21:04.547Z,-2.81
2023-12-04T03:22:04.033Z,-2.81
2023-12-04T03:23:03.964Z,-2.81
2023-12-04T03:24:03.943Z,-2.84
2023-12-04T03:25:03.992Z,-2.85
2023-12-04T03:26:03.959Z,-2.85
2023-12-04T03:27:03.932Z,-2.86
2023-12-04T03:28:03.949Z,-2.88
2023-12-04T03:29:03.880Z,-2.88
2023-12-04T03:30:04.032Z,-2.91
2023-12-04T03:31:03.971Z,-2.96
2023-12-04T03:32:04.803Z,-2.99
2023-12-04T03:33:03.970Z,-2.99
2023-12-04T03:34:04.047Z,-3.00
2023-12-04T03:35:03.916Z,-3.00
2023-12-04T03:36:03.968Z,-3.02
2023-12-04T03:37:04.458Z,-3.03
2023-12-04T03:38:04.512Z,-3.02
2023-12-04T03:39:03.811Z,-3.02
2023-12-04T03:40:03.885Z,-3.02
2023-12-04T03:41:03.841Z,-3.02
2023-12-04T03:42:03.753Z,-3.00
2023-12-04T03:43:06.048Z,-2.97
2023-12-04T03:44:04.510Z,-2.94
2023-12-04T03:45:03.753Z,-2.96
2023-12-04T03:46:03.749Z,-2.96
2023-12-04T03:47:04.565Z,-2.97
2023-12-04T03:48:03.793Z,-2.99
2023-12-04T03:49:03.819Z,-3.00
2023-12-04T03:50:03.713Z,-3.00
2023-12-04T03:51:03.664Z,-3.00
2023-12-04T03:52:03.723Z,-2.99
2023-12-04T03:53:03.634Z,-2.99
2023-12-04T03:54:03.623Z,-2.97
2023-12-04T03:55:03.700Z,-2.96
2023-12-04T03:56:04.505Z,-2.97
2023-12-04T03:57:04.550Z,-2.96
2023-12-04T03:58:03.676Z,-2.97
2023-12-04T03:59:04.560Z,-2.97
2023-12-04T04:00:03.587Z,-2.97
2023-12-04T04:01:03.648Z,-2.99
2023-12-04T04:02:04.567Z,-2.97
2023-12-04T04:03:03.548Z,-2.99
2023-12-04T04:04:03.529Z,-2.99
2023-12-04T04:05:04.057Z,-3.00
2023-12-04T04:06:03.514Z,-2.99
2023-12-04T04:07:06.509Z,-2.99
2023-12-04T04:08:03.488Z,-2.99
2023-12-04T04:09:03.466Z,-2.99
2023-12-04T04:10:03.481Z,-3.00
2023-12-04T04:11:03.467Z,-3.02
2023-12-04T04:12:03.940Z,-3.00
2023-12-04T04:13:03.486Z,-3.02
2023-12-04T04:14:04.016Z,-3.02
2023-12-04T04:15:03.397Z,-3.00
2023-12-04T04:16:03.429Z,-3.00
2023-12-04T04:17:03.397Z,-3.00
2023-12-04T04:18:04.113Z,-2.99
2023-12-04T04:19:04.376Z,-2.99
2023-12-04T04:20:04.013Z,-3.00
2023-12-04T04:21:03.354Z,-3.02
2023-12-04T04:22:03.378Z,-3.02
2023-12-04T04:23:03.316Z,-3.03
2023-12-04T04:24:03.329Z,-3.00
2023-12-04T04:25:03.381Z,-3.00
2023-12-04T04:26:04.007Z,-2.97
2023-12-04T04:27:03.281Z,-2.97
2023-12-04T04:28:03.333Z,-2.99
2023-12-04T04:29:03.285Z,-2.97
2023-12-04T04:30:03.265Z,-2.96
2023-12-04T04:31:03.912Z,-2.94
2023-12-04T04:32:03.228Z,-2.96
2023-12-04T04:33:03.250Z,-2.97
2023-12-04T04:34:03.287Z,-2.97
2023-12-04T04:35:04.097Z,-2.97
2023-12-04T04:36:03.201Z,-2.99
2023-12-04T04:37:03.190Z,-3.00
2023-12-04T04:38:04.007Z,-2.99
2023-12-04T04:39:04.007Z,-2.99
2023-12-04T04:40:03.256Z,-2.97
2023-12-04T04:41:03.235Z,-2.99
2023-12-04T04:42:03.126Z,-3.02
2023-12-04T04:43:03.173Z,-3.02
2023-12-04T04:44:03.101Z,-2.99
2023-12-04T04:45:03.106Z,-2.96
2023-12-04T04:46:03.135Z,-2.97
2023-12-04T04:47:03.070Z,-2.97
2023-12-04T04:48:04.039Z,-2.99
2023-12-04T04:49:04.122Z,-3.02
2023-12-04T04:50:04.037Z,-3.00
2023-12-04T04:51:03.030Z,-3.00
2023-12-04T04:52:03.135Z,-2.99
2023-12-04T04:53:03.007Z,-3.00
2023-12-04T04:54:04.002Z,-2.99
2023-12-04T04:55:03.544Z,-2.96
2023-12-04T04:56:03.508Z,-2.96
2023-12-04T04:57:02.979Z,-2.96
2023-12-04T04:58:03.036Z,-2.99
2023-12-04T04:59:02.944Z,-3.02
2023-12-04T05:00:02.939Z,-3.05
2023-12-04T05:01:03.565Z,-3.09
2023-12-04T05:02:02.954Z,-3.09
2023-12-04T05:03:03.509Z,-3.12
2023-12-04T05:04:04.651Z,-3.10
2023-12-04T05:05:03.504Z,-3.12
2023-12-04T05:06:02.927Z,-3.10
2023-12-04T05:07:03.562Z,-3.10
2023-12-04T05:08:03.531Z,-3.09
2023-12-04T05:09:02.841Z,-3.07
2023-12-04T05:10:05.656Z,-3.10
2023-12-04T05:11:02.956Z,-3.15
2023-12-04T05:12:02.799Z,-3.14
2023-12-04T05:13:03.559Z,-3.15
2023-12-04T05:14:02.776Z,-3.17
2023-12-04T05:15:02.766Z,-3.17
2023-12-04T05:16:03.581Z,-3.18
2023-12-04T05:17:03.928Z,-3.15
2023-12-04T05:18:02.758Z,-3.15
2023-12-04T05:19:02.953Z,-3.14
2023-12-04T05:20:02.777Z,-3.12
2023-12-04T05:21:02.717Z,-3.12
2023-12-04T05:22:02.801Z,-3.10
2023-12-04T05:23:02.691Z,-3.09
2023-12-04T05:24:02.671Z,-3.09
2023-12-04T05:25:03.544Z,-3.07
2023-12-04T05:26:02.652Z,-3.06
2023-12-04T05:27:02.639Z,-3.06
2023-12-04T05:28:02.734Z,-3.07
2023-12-04T05:29:02.623Z,-3.07
2023-12-04T05:30:03.302Z,-3.07
2023-12-04T05:31:03.623Z,-3.06
2023-12-04T05:32:02.598Z,-3.05
2023-12-04T05:33:02.636Z,-3.03
2023-12-04T05:34:03.698Z,-3.02
2023-12-04T05:35:02.561Z,-3.03
2023-12-04T05:36:04.049Z,-3.02
2023-12-04T05:37:02.579Z,-3.02
2023-12-04T05:38:02.514Z,-3.02
2023-12-04T05:39:03.504Z,-3.00
2023-12-04T05:40:02.593Z,-2.97
2023-12-04T05:41:02.495Z,-2.97
2023-12-04T05:42:03.320Z,-2.97
2023-12-04T05:43:02.537Z,-2.96
2023-12-04T05:44:02.464Z,-2.96
2023-12-04T05:45:02.643Z,-2.97
2023-12-04T05:46:02.442Z,-2.99
2023-12-04T05:47:04.089Z,-2.99
2023-12-04T05:48:03.031Z,-2.99
2023-12-04T05:49:03.098Z,-3.00
2023-12-04T05:50:03.180Z,-3.02
2023-12-04T05:51:02.393Z,-3.02
2023-12-04T05:52:02.387Z,-3.00
2023-12-04T05:53:02.920Z,-2.97
2023-12-04T05:54:03.013Z,-2.97
2023-12-04T05:55:02.419Z,-2.99
2023-12-04T05:56:02.355Z,-2.97
2023-12-04T05:57:03.065Z,-2.97
2023-12-04T05:58:02.408Z,-2.97
2023-12-04T05:59:02.318Z,-2.99
2023-12-04T06:00:03.019Z,-2.99
2023-12-04T06:01:03.016Z,-2.99
2023-12-04T06:02:02.321Z,-3.00
2023-12-04T06:03:02.381Z,-3.00
2023-12-04T06:04:02.287Z,-3.00
2023-12-04T06:05:02.293Z,-2.97
2023-12-04T06:06:04.628Z,-2.99
2023-12-04T06:07:02.304Z,-2.97
2023-12-04T06:08:02.210Z,-2.94
2023-12-04T06:09:03.085Z,-2.94
2023-12-04T06:10:02.229Z,-2.94
2023-12-04T06:11:02.193Z,-2.92
2023-12-04T06:12:02.191Z,-2.94
2023-12-04T06:13:02.220Z,-2.92
2023-12-04T06:14:02.168Z,-2.92
2023-12-04T06:15:03.575Z,-2.92
2023-12-04T06:16:02.233Z,-2.91
2023-12-04T06:17:02.164Z,-2.94
2023-12-04T06:18:02.266Z,-2.96
2023-12-04T06:19:02.197Z,-2.94
2023-12-04T06:20:03.071Z,-2.94
2023-12-04T06:21:03.074Z,-2.94
2023-12-04T06:22:02.219Z,-2.92
2023-12-04T06:23:02.074Z,-2.92
2023-12-04T06:24:04.798Z,-2.91
2023-12-04T06:25:02.208Z,-2.91
2023-12-04T06:26:02.030Z,-2.89
2023-12-04T06:27:02.570Z,-2.89
2023-12-04T06:28:02.064Z,-2.92
2023-12-04T06:29:04.024Z,-2.92
2023-12-04T06:30:01.997Z,-2.92
2023-12-04T06:31:02.972Z,-2.92
2023-12-04T06:32:01.978Z,-2.94
2023-12-04T06:33:01.992Z,-2.94
2023-12-04T06:34:02.991Z,-2.92
2023-12-04T06:35:02.826Z,-2.89
2023-12-04T06:36:01.938Z,-2.89
2023-12-04T06:37:01.959Z,-2.89
2023-12-04T06:38:01.905Z,-2.86
2023-12-04T06:39:01.896Z,-2.88
2023-12-04T06:40:02.461Z,-2.89
2023-12-04T06:41:02.536Z,-2.89
2023-12-04T06:42:01.868Z,-2.89
2023-12-04T06:43:01.885Z,-2.88
2023-12-04T06:44:01.864Z,-2.89
2023-12-04T06:45:01.836Z,-2.88
2023-12-04T06:46:01.857Z,-2.89
2023-12-04T06:47:02.532Z,-2.89
2023-12-04T06:48:01.826Z,-2.91
2023-12-04T06:49:01.907Z,-2.89
2023-12-04T06:50:02.581Z,-2.88
2023-12-04T06:51:01.769Z,-2.88
2023-12-04T06:52:02.361Z,-2.88
2023-12-04T06:53:01.757Z,-2.86
2023-12-04T06:54:01.747Z,-2.86
2023-12-04T06:55:01.792Z,-2.84
2023-12-04T06:56:01.717Z,-2.79
2023-12-04T06:57:01.713Z,-2.79
2023-12-04T06:58:01.721Z,-2.77
2023-12-04T06:59:02.577Z,-2.74
2023-12-04T07:00:01.752Z,-2.73
2023-12-04T07:01:01.668Z,-2.70
2023-12-04T07:02:03.132Z,-2.68
2023-12-04T07:03:02.456Z,-2.66
2023-12-04T07:04:01.714Z,-2.64
2023-12-04T07:05:01.613Z,-2.64
2023-12-04T07:06:01.674Z,-2.64
2023-12-04T07:07:01.601Z,-2.63
2023-12-04T07:08:01.603Z,-2.61
2023-12-04T07:09:01.581Z,-2.60
2023-12-04T07:10:01.702Z,-2.55
2023-12-04T07:11:02.523Z,-2.52
2023-12-04T07:12:01.544Z,-2.52
2023-12-04T07:13:02.199Z,-2.49
2023-12-04T07:14:01.536Z,-2.49
2023-12-04T07:15:01.512Z,-2.46
2023-12-04T07:16:04.488Z,-2.46
2023-12-04T07:17:02.436Z,-2.43
2023-12-04T07:18:01.605Z,-2.46
2023-12-04T07:19:02.628Z,-2.45
2023-12-04T07:20:02.076Z,-2.43
2023-12-04T07:21:01.494Z,-2.43
2023-12-04T07:22:02.073Z,-2.40
2023-12-04T07:23:01.431Z,-2.42
2023-12-04T07:24:01.422Z,-2.40
2023-12-04T07:25:01.456Z,-2.39
2023-12-04T07:26:02.844Z,-2.37
2023-12-04T07:27:02.087Z,-2.39
2023-12-04T07:28:01.509Z,-2.39
2023-12-04T07:29:01.382Z,-2.35
2023-12-04T07:30:01.375Z,-2.35
2023-12-04T07:31:02.096Z,-2.35
2023-12-04T07:32:01.376Z,-2.32
2023-12-04T07:33:01.437Z,-2.30
2023-12-04T07:34:02.297Z,-2.30
2023-12-04T07:35:01.357Z,-2.30
2023-12-04T07:36:01.304Z,-2.32
2023-12-04T07:37:03.129Z,-2.32
2023-12-04T07:38:02.084Z,-2.27
2023-12-04T07:39:01.261Z,-2.27
2023-12-04T07:40:02.080Z,-2.23
2023-12-04T07:41:01.236Z,-2.21
2023-12-04T07:42:12.104Z,-2.20
2023-12-04T07:43:01.277Z,-2.16
2023-12-04T07:44:01.210Z,-2.18
2023-12-04T07:45:01.834Z,-2.15
2023-12-04T07:46:01.286Z,-2.15
2023-12-04T07:47:01.180Z,-2.15
2023-12-04T07:48:01.203Z,-2.15
2023-12-04T07:49:01.269Z,-2.13
2023-12-04T07:50:01.380Z,-2.09
2023-12-04T07:51:01.139Z,-2.08
2023-12-04T07:52:02.089Z,-2.06
2023-12-04T07:53:01.127Z,-2.06
2023-12-04T07:54:04.340Z,-2.05
2023-12-04T07:55:03.067Z,-2.02
2023-12-04T07:56:01.094Z,-2.00
2023-12-04T07:57:02.036Z,-1.98
2023-12-04T07:58:01.105Z,-1.97
2023-12-04T07:59:01.101Z,-1.94
2023-12-04T08:00:01.047Z,-1.91
2023-12-04T08:01:01.630Z,-1.90
2023-12-04T08:02:01.152Z,-1.90
2023-12-04T08:03:03.071Z,-1.87
2023-12-04T08:04:01.628Z,-1.84
2023-12-04T08:05:01.003Z,-1.80
2023-12-04T08:06:01.047Z,-1.80
2023-12-04T08:07:01.623Z,-1.80
2023-12-04T08:08:00.961Z,-1.79
2023-12-04T08:09:01.845Z,-1.77
2023-12-04T08:10:01.914Z,-1.76
2023-12-04T08:11:00.946Z,-1.77
2023-12-04T08:12:00.924Z,-1.76
2023-12-04T08:13:00.935Z,-1.73
2023-12-04T08:14:00.904Z,-1.72
2023-12-04T08:15:00.888Z,-1.69
2023-12-04T08:16:01.589Z,-1.72
2023-12-04T08:17:00.863Z,-1.70
2023-12-04T08:18:01.610Z,-1.70
2023-12-04T08:19:01.093Z,-1.70
2023-12-04T08:20:00.963Z,-1.67
2023-12-04T08:21:00.923Z,-1.67
2023-12-04T08:22:02.334Z,-1.67
2023-12-04T08:23:02.061Z,-1.64
2023-12-04T08:24:00.790Z,-1.62
2023-12-04T08:25:00.945Z,-1.59
2023-12-04T08:26:01.655Z,-1.52
2023-12-04T08:27:00.806Z,-1.40
2023-12-04T08:28:00.813Z,-1.34
2023-12-04T08:29:00.742Z,-1.28
2023-12-04T08:30:00.763Z,-1.25
2023-12-04T08:31:00.769Z,-1.23
2023-12-04T08:32:00.758Z,-1.27
2023-12-04T08:33:01.514Z,-1.27
2023-12-04T08:34:00.733Z,-1.27
2023-12-04T08:35:00.676Z,-1.30
2023-12-04T08:36:02.170Z,-1.30
2023-12-04T08:37:00.731Z,-1.28
2023-12-04T08:38:01.715Z,-1.31
2023-12-04T08:39:00.645Z,-1.33
2023-12-04T08:40:00.657Z,-1.30
2023-12-04T08:41:00.618Z,-1.28
2023-12-04T08:42:04.968Z,-1.22
2023-12-04T08:43:00.605Z,-1.22
2023-12-04T08:44:00.636Z,-1.20
2023-12-04T08:45:00.569Z,-1.17
2023-12-04T08:46:00.564Z,-1.15
2023-12-04T08:47:00.589Z,-1.15
2023-12-04T08:48:00.634Z,-1.15
2023-12-04T08:49:00.781Z,-1.13
2023-12-04T08:50:00.668Z,-1.15
2023-12-04T08:51:00.503Z,-1.13
2023-12-04T08:52:00.522Z,-1.10
2023-12-04T08:53:01.587Z,-1.09
2023-12-04T08:54:00.467Z,-1.09
2023-12-04T08:55:01.282Z,-1.10
2023-12-04T08:56:01.036Z,-1.09
2023-12-04T08:57:00.431Z,-1.10
2023-12-04T08:58:00.463Z,-1.10
2023-12-04T08:59:02.103Z,-1.07
2023-12-04T09:00:00.420Z,-1.04
2023-12-04T09:01:01.119Z,-1.02
2023-12-04T09:02:00.440Z,-1.02
2023-12-04T09:03:08.494Z,-0.99
2023-12-04T09:04:02.688Z,-1.02
2023-12-04T09:05:01.391Z,-1.01
2023-12-04T09:06:00.829Z,-0.98
2023-12-04T09:08:30.243Z,-1.01
2023-12-04T09:09:05.659Z,-1.02
2023-12-04T09:10:03.273Z,-0.98
2023-12-04T09:11:11.015Z,-0.95
2023-12-04T09:12:00.278Z,-0.92
2023-12-04T09:13:00.268Z,-0.92
2023-12-04T09:14:00.257Z,-0.92
2023-12-04T09:15:01.363Z,-0.94
2023-12-04T09:16:01.047Z,-0.92
2023-12-04T09:17:01.084Z,-0.89
2023-12-04T09:18:00.245Z,-0.86
2023-12-04T09:19:00.923Z,-0.89
2023-12-04T09:20:00.402Z,-0.86
2023-12-04T09:21:00.259Z,-0.91
2023-12-04T09:22:08.405Z,-0.94
2023-12-04T09:23:04.444Z,-0.92
2023-12-04T09:24:00.240Z,-0.91
2023-12-04T09:25:00.179Z,-0.89
2023-12-04T09:26:00.145Z,-0.85
2023-12-04T09:27:00.197Z,-0.79
2023-12-04T09:28:00.133Z,-0.78
2023-12-04T09:29:01.107Z,-0.76
2023-12-04T09:30:00.097Z,-0.73
2023-12-04T09:31:01.072Z,-0.75
2023-12-04T09:32:00.088Z,-0.75
2023-12-04T09:33:00.192Z,-0.75
2023-12-04T09:34:00.070Z,-0.76
2023-12-04T09:35:00.033Z,-0.75
2023-12-04T09:36:00.024Z,-0.75
2023-12-04T09:37:06.206Z,-0.76
2023-12-04T09:38:00.540Z,-0.73
2023-12-04T09:39:00.008Z,-0.76
2023-12-04T09:39:59.991Z,-0.76
2023-12-04T09:40:59.979Z,-0.73
2023-12-04T09:41:59.958Z,-0.72
2023-12-04T09:43:00.558Z,-0.72
2023-12-04T09:43:59.946Z,-0.72
2023-12-04T09:44:59.945Z,-0.70
2023-12-04T09:46:01.545Z,-0.69
2023-12-04T09:46:59.941Z,-0.65
2023-12-04T09:47:59.971Z,-0.64
2023-12-04T09:49:00.196Z,-0.64
2023-12-04T09:50:00.128Z,-0.64
2023-12-04T09:51:00.353Z,-0.62
2023-12-04T09:52:00.589Z,-0.62
2023-12-04T09:52:59.855Z,-0.61
2023-12-04T09:54:00.595Z,-0.61
2023-12-04T09:54:59.822Z,-0.61
2023-12-04T09:56:01.045Z,-0.65
2023-12-04T09:56:59.798Z,-0.69
2023-12-04T09:57:59.792Z,-0.70
2023-12-04T09:58:59.779Z,-0.69
2023-12-04T09:59:59.837Z,-0.67
2023-12-04T10:00:59.776Z,-0.65
2023-12-04T10:01:59.847Z,-0.65
2023-12-04T10:02:59.786Z,-0.64
2023-12-04T10:03:59.765Z,-0.61
2023-12-04T10:04:59.811Z,-0.58
2023-12-04T10:06:00.341Z,-0.57
2023-12-04T10:06:59.694Z,-0.55
2023-12-04T10:07:59.689Z,-0.52
2023-12-04T10:09:00.603Z,-0.54
2023-12-04T10:09:59.665Z,-0.54
2023-12-04T10:10:59.675Z,-0.51
2023-12-04T10:11:59.643Z,-0.47
2023-12-04T10:12:59.740Z,-0.46
2023-12-04T10:14:00.482Z,-0.46
2023-12-04T10:15:01.561Z,-0.46
2023-12-04T10:15:59.602Z,-0.43
2023-12-04T10:17:01.565Z,-0.44
2023-12-04T10:18:00.599Z,-0.43
2023-12-04T10:19:00.628Z,-0.44
2023-12-04T10:20:00.137Z,-0.40
2023-12-04T10:20:59.561Z,-0.39
2023-12-04T10:22:00.665Z,-0.33
2023-12-04T10:22:59.543Z,-0.29
2023-12-04T10:24:00.047Z,-0.28
2023-12-04T10:24:59.511Z,-0.26
2023-12-04T10:25:59.499Z,-0.25
2023-12-04T10:26:59.533Z,-0.25
2023-12-04T10:27:59.479Z,-0.28
2023-12-04T10:28:59.473Z,-0.25
2023-12-04T10:30:00.054Z,-0.22
2023-12-04T10:30:59.446Z,-0.19
2023-12-04T10:32:00.153Z,-0.21
2023-12-04T10:32:59.502Z,-0.22
2023-12-04T10:33:59.491Z,-0.23
2023-12-04T10:34:59.410Z,-0.22
2023-12-04T10:36:00.071Z,-0.19
2023-12-04T10:36:59.429Z,-0.21
2023-12-04T10:38:00.553Z,-0.23
2023-12-04T10:39:00.103Z,-0.22
2023-12-04T10:39:59.351Z,-0.19
2023-12-04T10:40:59.340Z,-0.16
2023-12-04T10:41:59.336Z,-0.14
2023-12-04T10:42:59.847Z,-0.14
2023-12-04T10:44:04.513Z,-0.08
2023-12-04T10:45:00.204Z,-0.10
2023-12-04T10:45:59.303Z,-0.07
2023-12-04T10:46:59.969Z,-0.01
2023-12-04T10:47:59.318Z,0.03
2023-12-04T10:49:01.357Z,0.10
2023-12-04T10:50:00.243Z,0.14
2023-12-04T10:50:59.248Z,0.20
2023-12-04T10:51:59.226Z,0.18
2023-12-04T10:52:59.222Z,0.21
2023-12-04T10:54:00.084Z,0.24
2023-12-04T10:54:59.213Z,0.26
2023-12-04T10:55:59.197Z,0.28
2023-12-04T10:56:59.170Z,0.26
2023-12-04T10:57:59.167Z,0.26
2023-12-04T10:59:00.056Z,0.23
2023-12-04T10:59:59.148Z,0.23
2023-12-04T11:00:59.178Z,0.24
2023-12-04T11:01:59.220Z,0.26
2023-12-04T11:02:59.121Z,0.28
2023-12-04T11:03:59.221Z,0.29
2023-12-04T11:05:00.072Z,0.31
2023-12-04T11:05:59.070Z,0.33
2023-12-04T11:06:59.061Z,0.33
2023-12-04T11:08:14.561Z,0.32
2023-12-04T11:08:59.046Z,0.32
2023-12-04T11:09:59.028Z,0.31
2023-12-04T11:10:59.053Z,0.31
2023-12-04T11:11:59.641Z,0.29
2023-12-04T11:13:00.605Z,0.31
2023-12-04T11:14:00.554Z,0.32
2023-12-04T11:14:59.094Z,0.35
2023-12-04T11:15:58.972Z,0.33
2023-12-04T11:16:59.550Z,0.33
2023-12-04T11:17:58.970Z,0.33
2023-12-04T11:18:59.004Z,0.31
2023-12-04T11:19:58.966Z,0.31
2023-12-04T11:20:59.479Z,0.29
2023-12-04T11:22:00.552Z,0.24
2023-12-04T11:22:58.912Z,0.24
2023-12-04T11:23:58.877Z,0.21
2023-12-04T11:24:58.869Z,0.23
2023-12-04T11:25:58.851Z,0.26
2023-12-04T11:26:58.845Z,0.28
2023-12-04T11:27:59.554Z,0.24
2023-12-04T11:28:58.841Z,0.23
2023-12-04T11:29:58.809Z,0.26
2023-12-04T11:30:58.824Z,0.29
2023-12-04T11:31:58.799Z,0.32
2023-12-04T11:32:58.800Z,0.35
2023-12-04T11:33:59.572Z,0.36
2023-12-04T11:34:58.763Z,0.38
2023-12-04T11:35:58.743Z,0.39
2023-12-04T11:37:00.588Z,0.44
2023-12-04T11:37:58.736Z,0.46
2023-12-04T11:38:58.738Z,0.46
2023-12-04T11:39:59.360Z,0.51
2023-12-04T11:40:58.709Z,0.53
2023-12-04T11:41:58.696Z,0.50
2023-12-04T11:42:59.608Z,0.49
2023-12-04T11:43:59.406Z,0.49
2023-12-04T11:44:58.668Z,0.50
2023-12-04T11:45:58.639Z,0.53
2023-12-04T11:46:58.626Z,0.57
2023-12-04T11:47:58.758Z,0.60
2023-12-04T11:48:59.694Z,0.62
2023-12-04T11:49:59.469Z,0.65
2023-12-04T11:50:58.592Z,0.66
2023-12-04T11:51:58.570Z,0.68
2023-12-04T11:52:58.567Z,0.70
2023-12-04T11:53:59.107Z,0.73
2023-12-04T11:54:59.068Z,0.72
2023-12-04T11:55:58.622Z,0.72
2023-12-04T11:56:58.526Z,0.73
2023-12-04T11:57:58.508Z,0.78
2023-12-04T11:58:58.500Z,0.80
2023-12-04T11:59:58.482Z,0.83
2023-12-04T12:00:58.551Z,0.80
2023-12-04T12:01:58.672Z,0.84
2023-12-04T12:03:16.572Z,0.86
2023-12-04T12:03:58.550Z,0.84
2023-12-04T12:04:59.217Z,0.87
2023-12-04T12:05:59.294Z,0.88
2023-12-04T12:06:59.651Z,0.91
2023-12-04T12:07:59.609Z,0.88
2023-12-04T12:08:59.059Z,0.90
2023-12-04T12:09:58.385Z,0.90
2023-12-04T12:10:58.456Z,0.90
2023-12-04T12:11:58.396Z,0.88
2023-12-04T12:12:58.371Z,0.83
2023-12-04T12:13:58.983Z,0.78
2023-12-04T12:14:58.338Z,0.75
2023-12-04T12:15:58.311Z,0.75
2023-12-04T12:16:59.119Z,0.75
2023-12-04T12:17:58.397Z,0.75
2023-12-04T12:18:59.632Z,0.75
2023-12-04T12:19:58.875Z,0.72
2023-12-04T12:20:58.262Z,0.69
2023-12-04T12:21:58.258Z,0.69
2023-12-04T12:22:58.285Z,0.69
2023-12-04T12:23:58.235Z,0.72
2023-12-04T12:24:58.240Z,0.73
2023-12-04T12:25:58.224Z,0.73
2023-12-04T12:26:58.203Z,0.73
2023-12-04T12:27:59.085Z,0.76
2023-12-04T12:28:58.209Z,0.76
2023-12-04T12:29:59.064Z,0.76
2023-12-04T12:30:58.163Z,0.75
2023-12-04T12:31:58.972Z,0.76
2023-12-04T12:32:58.158Z,0.73
2023-12-04T12:33:58.920Z,0.73
2023-12-04T12:34:58.630Z,0.70
2023-12-04T12:36:03.144Z,0.65
2023-12-04T12:36:59.068Z,0.68
2023-12-04T12:37:59.063Z,0.69
2023-12-04T12:38:58.074Z,0.70
2023-12-04T12:39:58.073Z,0.72
2023-12-04T12:40:58.056Z,0.69
2023-12-04T12:41:58.038Z,0.66
2023-12-04T12:43:58.023Z,0.65
2023-12-04T12:44:58.876Z,0.61
2023-12-04T12:45:57.990Z,0.58
2023-12-04T12:46:58.621Z,0.57
2023-12-04T12:47:58.110Z,0.51
2023-12-04T12:48:58.612Z,0.49
2023-12-04T12:49:58.084Z,0.55
2023-12-04T12:50:58.566Z,0.58
2023-12-04T12:51:57.941Z,0.58
2023-12-04T12:52:57.957Z,0.55
2023-12-04T12:53:57.911Z,0.51
2023-12-04T12:54:57.924Z,0.51
2023-12-04T12:55:57.911Z,0.50
2023-12-04T12:56:57.883Z,0.49
2023-12-04T12:57:57.875Z,0.47